createdAt,value
2018-06-12T00:14:32.316Z,17.50
2018-06-12T00:35:14.723Z,17.37
2018-06-12T00:55:52.688Z,17.21
2018-06-12T01:16:35.026Z,17.16
2018-06-12T01:37:14.535Z,17.31
2018-06-12T01:57:53.809Z,17.06
2018-06-12T02:18:35.593Z,16.90
2018-06-12T02:39:21.447Z,16.78
2018-06-12T02:59:58.732Z,16.66
2018-06-12T03:20:51.818Z,16.56
2018-06-12T03:41:31.086Z,16.18
2018-06-12T04:02:06.365Z,16.06
2018-06-12T04:22:48.699Z,15.97
2018-06-12T04:43:28.886Z,15.78
2018-06-12T05:04:08.154Z,15.79
2018-06-12T05:24:47.420Z,15.65
2018-06-12T05:45:24.838Z,15.90
2018-06-12T06:06:05.949Z,16.01
2018-06-12T06:26:45.218Z,15.96
2018-06-12T06:47:13.423Z,16.07
2018-06-12T07:07:51.765Z,16.20
2018-06-12T07:28:31.950Z,16.57
2018-06-12T07:49:03.416Z,16.71
2018-06-12T08:09:46.491Z,16.70
2018-06-12T08:30:25.899Z,16.53
2018-06-12T08:51:03.184Z,16.40
2018-06-12T09:11:37.232Z,16.50
2018-06-12T09:32:17.418Z,17.06
2018-06-12T09:52:54.531Z,17.24
2018-06-12T10:13:31.952Z,17.66
2018-06-12T10:34:17.365Z,17.91
2018-06-12T10:55:03.694Z,18.20
2018-06-12T11:15:29.751Z,18.60
2018-06-12T11:36:10.865Z,18.35
2018-06-12T11:56:50.706Z,18.22
2018-06-12T12:17:21.413Z,18.11
2018-06-12T12:38:02.090Z,17.96
2018-06-12T12:58:35.299Z,17.63
2018-06-12T13:19:13.367Z,17.32
2018-06-12T13:39:53.554Z,16.98
2018-06-12T14:00:19.613Z,17.42
2018-06-12T14:20:57.956Z,18.07
2018-06-12T14:41:17.870Z,17.85
2018-06-12T15:01:55.293Z,17.85
2018-06-12T15:22:21.347Z,17.74
2018-06-12T15:42:52.629Z,17.78
2018-06-12T16:03:30.061Z,17.87
2018-06-12T16:24:08.086Z,17.77
2018-06-12T16:44:32.302Z,17.40
2018-06-12T17:05:11.801Z,17.55
2018-06-12T17:25:51.757Z,17.24
2018-06-12T17:46:20.880Z,16.81
2018-06-12T18:06:50.009Z,16.66
2018-06-12T18:27:25.649Z,16.51
2018-06-12T18:47:58.713Z,16.53
2018-06-12T19:08:31.198Z,16.57
2018-06-12T19:29:14.383Z,16.30
2018-06-12T19:49:50.369Z,15.95
2018-06-12T20:10:21.645Z,15.74
2018-06-12T20:30:53.997Z,15.57
2018-06-12T20:51:30.044Z,15.47
2018-06-12T21:12:13.305Z,15.38
2018-06-12T21:32:55.638Z,15.32
2018-06-12T21:53:35.837Z,15.20
2018-06-12T22:14:13.868Z,14.95
2018-06-12T22:34:50.368Z,15.05
2018-06-12T22:55:32.715Z,15.09
2018-06-12T23:16:04.905Z,15.00
2018-06-12T23:36:44.174Z,14.84
2018-06-12T23:57:22.521Z,14.91
